Time;durP1;ratioP1;P1;durP2;ratioP2;P2;SDS_P1;SDS_P2;PMS_P1;PMS_P2;Temp;Humidity;BMP_temperature;BMP_pressure;BME280_temperature;BME280_humidity;BME280_pressure;Samples;Min_cycle;Max_cycle;Signal;HPM_P1;HPM_P2
2023/06/30 00:00:12;;;;;;;11.83;10.70;;;23.40;99.90;;;;;;4995026;28;20476;-80
2023/06/30 00:02:39;;;;;;;11.97;11.07;;;23.40;99.90;;;;;;4994964;28;20558;-79
2023/06/30 00:05:08;;;;;;;13.07;11.97;;;23.40;99.90;;;;;;4994414;28;20516;-80
2023/06/30 00:07:39;;;;;;;13.40;12.20;;;23.40;99.90;;;;;;4994475;28;20470;-80
2023/06/30 00:10:08;;;;;;;14.10;13.00;;;23.40;99.90;;;;;;4994692;28;20801;-79
2023/06/30 00:12:35;;;;;;;12.47;11.37;;;23.50;99.90;;;;;;4994943;28;20462;-79
2023/06/30 00:15:06;;;;;;;12.00;11.00;;;23.50;99.90;;;;;;4994700;28;20468;-79
2023/06/30 00:17:33;;;;;;;10.30;9.50;;;23.50;99.90;;;;;;4994681;28;20461;-79
2023/06/30 00:20:05;;;;;;;10.30;9.30;;;23.50;99.90;;;;;;4994747;28;20461;-79
2023/06/30 00:22:35;;;;;;;11.03;9.93;;;23.50;99.90;;;;;;4993367;28;20971;-80
2023/06/30 00:25:04;;;;;;;9.93;9.13;;;23.50;99.90;;;;;;4992624;28;20470;-80
2023/06/30 00:27:51;;;;;;;12.13;10.93;;;23.50;99.90;;;;;;4990301;28;20827;-80
2023/06/30 00:30:18;;;;;;;11.40;10.30;;;23.50;99.90;;;;;;4990709;28;20465;-80
2023/06/30 00:32:45;;;;;;;11.00;9.93;;;23.50;99.90;;;;;;4993712;28;20521;-80
2023/06/30 00:35:12;;;;;;;12.00;10.80;;;23.50;99.90;;;;;;4993793;28;20867;-81
2023/06/30 00:37:39;;;;;;;14.00;12.60;;;23.50;99.90;;;;;;4983133;28;20520;-80
2023/06/30 00:40:09;;;;;;;11.60;10.50;;;23.50;99.90;;;;;;4994114;28;20857;-80
2023/06/30 00:42:39;;;;;;;12.50;11.40;;;23.50;99.90;;;;;;4993356;28;20964;-80
2023/06/30 00:45:07;;;;;;;14.30;12.97;;;23.50;99.90;;;;;;4994352;28;20857;-80
2023/06/30 00:47:34;;;;;;;14.17;12.87;;;23.50;99.90;;;;;;4993832;28;20470;-80
2023/06/30 00:50:01;;;;;;;13.37;12.17;;;23.50;99.90;;;;;;4994241;28;20462;-78
2023/06/30 00:52:28;;;;;;;15.10;12.80;;;23.40;99.90;;;;;;4993976;28;20470;-81
2023/06/30 00:54:55;;;;;;;14.70;12.57;;;23.40;99.90;;;;;;4984488;28;20518;-80
2023/06/30 00:57:24;;;;;;;17.97;16.20;;;23.40;99.90;;;;;;4993751;28;20976;-82
2023/06/30 00:59:51;;;;;;;15.60;14.20;;;23.30;99.90;;;;;;4993858;28;20979;-79
2023/06/30 01:02:22;;;;;;;15.50;14.10;;;23.30;99.90;;;;;;5003162;28;20462;-80
2023/06/30 01:04:54;;;;;;;16.07;14.47;;;23.20;99.90;;;;;;4998777;28;20478;-80
2023/06/30 01:07:29;;;;;;;16.33;14.50;;;23.20;99.90;;;;;;5002725;28;20470;-81
2023/06/30 01:10:01;;;;;;;15.90;14.40;;;23.10;99.90;;;;;;5005749;28;20462;-82
2023/06/30 01:12:30;;;;;;;15.90;14.23;;;23.10;99.90;;;;;;5006003;28;20468;-81
2023/06/30 01:14:58;;;;;;;14.67;13.33;;;23.00;99.90;;;;;;5019892;28;20461;-81
2023/06/30 01:17:26;;;;;;;16.00;14.47;;;23.00;99.90;;;;;;5014016;28;20473;-81
2023/06/30 01:19:58;;;;;;;15.73;14.13;;;22.90;99.90;;;;;;5013036;28;20484;-79
2023/06/30 01:22:29;;;;;;;16.07;14.57;;;22.90;99.90;;;;;;5013622;28;20500;-80
2023/06/30 01:25:01;;;;;;;15.20;13.43;;;22.90;99.90;;;;;;5013043;28;20480;-80
2023/06/30 01:27:30;;;;;;;15.47;14.07;;;22.80;99.90;;;;;;5003605;28;20477;-80
2023/06/30 01:29:57;;;;;;;17.93;15.53;;;22.80;99.90;;;;;;5013865;28;20479;-80
2023/06/30 01:32:25;;;;;;;18.20;15.90;;;22.70;99.90;;;;;;5013540;28;20499;-80
2023/06/30 01:34:52;;;;;;;16.90;15.17;;;22.70;99.90;;;;;;5011418;28;20531;-80
2023/06/30 01:37:19;;;;;;;15.60;13.90;;;22.70;99.90;;;;;;5013444;28;20477;-80
2023/06/30 01:39:46;;;;;;;17.37;15.77;;;22.60;99.90;;;;;;5012864;28;20531;-80
2023/06/30 01:42:14;;;;;;;15.70;14.10;;;22.60;99.90;;;;;;5013205;28;20523;-80
2023/06/30 01:44:45;;;;;;;16.97;15.37;;;22.60;99.90;;;;;;5012416;28;20535;-80
2023/06/30 01:47:13;;;;;;;18.50;16.50;;;22.50;99.90;;;;;;5013180;28;20472;-79
2023/06/30 01:49:40;;;;;;;20.03;17.37;;;22.50;99.90;;;;;;5012313;28;20473;-79
2023/06/30 01:52:07;;;;;;;17.43;15.73;;;22.50;99.90;;;;;;5013191;28;20473;-80
2023/06/30 01:54:34;;;;;;;17.83;16.00;;;22.50;99.90;;;;;;5013217;28;20477;-80
2023/06/30 01:57:02;;;;;;;17.63;15.93;;;22.40;99.90;;;;;;5012696;28;20468;-79
2023/06/30 01:59:28;;;;;;;19.70;17.70;;;22.40;99.90;;;;;;5016519;28;20477;-79
2023/06/30 02:02:00;;;;;;;18.40;16.50;;;22.30;99.90;;;;;;5016303;28;20473;-79
2023/06/30 02:04:27;;;;;;;17.83;16.03;;;22.30;99.90;;;;;;5016770;28;20477;-79
2023/06/30 02:06:54;;;;;;;17.50;15.80;;;22.30;99.90;;;;;;5015811;28;20477;-80
2023/06/30 02:09:24;;;;;;;19.00;17.23;;;22.30;99.90;;;;;;5016792;28;21008;-79
2023/06/30 02:11:51;;;;;;;20.30;18.20;;;22.30;99.90;;;;;;5015872;28;20468;-79
2023/06/30 02:14:18;;;;;;;23.20;18.90;;;22.20;99.90;;;;;;5016118;28;20488;-79
2023/06/30 02:16:45;;;;;;;19.40;17.30;;;22.20;99.90;;;;;;5015963;28;20465;-79
2023/06/30 02:19:13;;;;;;;17.47;15.53;;;22.10;99.90;;;;;;5016676;28;20463;-79
2023/06/30 02:21:40;;;;;;;19.00;17.07;;;22.10;99.90;;;;;;5016674;28;20496;-80
2023/06/30 02:24:08;;;;;;;17.30;15.50;;;22.10;99.90;;;;;;5015987;28;20457;-80
2023/06/30 02:26:35;;;;;;;15.70;14.10;;;22.10;99.90;;;;;;5016013;28;20469;-78
2023/06/30 02:29:03;;;;;;;16.47;13.60;;;22.10;99.90;;;;;;5015531;28;20472;-79
2023/06/30 02:31:30;;;;;;;16.33;14.73;;;22.00;99.90;;;;;;5015988;28;20477;-80
2023/06/30 02:33:57;;;;;;;15.47;13.97;;;22.00;99.90;;;;;;5015173;28;20546;-79
2023/06/30 02:36:25;;;;;;;17.40;15.63;;;22.00;99.90;;;;;;5015415;28;20477;-79
2023/06/30 02:38:52;;;;;;;16.73;15.03;;;22.00;99.90;;;;;;5015509;28;20473;-79
2023/06/30 02:41:19;;;;;;;16.53;14.90;;;22.10;99.90;;;;;;5016175;28;21053;-79
2023/06/30 02:43:46;;;;;;;18.77;16.77;;;22.00;99.90;;;;;;5015421;28;20813;-79
2023/06/30 02:46:15;;;;;;;19.10;16.43;;;22.00;99.90;;;;;;5015650;28;20523;-80
2023/06/30 02:48:42;;;;;;;18.20;16.40;;;22.00;99.90;;;;;;5015769;28;20480;-81
2023/06/30 02:51:12;;;;;;;17.60;15.77;;;22.00;99.90;;;;;;5015556;28;20472;-80
2023/06/30 02:53:40;;;;;;;21.73;17.40;;;22.00;99.90;;;;;;5015725;28;20476;-80
2023/06/30 02:56:07;;;;;;;20.20;17.03;;;22.00;99.90;;;;;;5015317;28;20465;-80
2023/06/30 02:58:36;;;;;;;18.73;16.90;;;21.90;99.90;;;;;;5015861;28;20540;-80
2023/06/30 03:01:05;;;;;;;18.63;15.57;;;21.90;99.90;;;;;;5004940;28;20776;-79
2023/06/30 03:03:32;;;;;;;18.10;16.27;;;21.90;99.90;;;;;;5015446;28;20488;-79
2023/06/30 03:05:59;;;;;;;17.83;16.07;;;21.90;99.90;;;;;;5015009;28;20561;-79
2023/06/30 03:08:26;;;;;;;19.07;16.60;;;21.90;99.90;;;;;;5015441;28;20963;-81
2023/06/30 03:10:55;;;;;;;22.63;17.43;;;21.80;99.90;;;;;;5013960;28;20983;-80
2023/06/30 03:13:24;;;;;;;18.17;16.20;;;21.80;99.90;;;;;;5015353;28;20935;-80
2023/06/30 03:15:51;;;;;;;18.80;16.90;;;21.80;99.90;;;;;;5014755;28;20535;-81
2023/06/30 03:18:18;;;;;;;16.73;15.03;;;21.80;99.90;;;;;;5015372;28;20580;-81
2023/06/30 03:20:45;;;;;;;18.53;16.63;;;21.80;99.90;;;;;;5015708;28;20477;-80
2023/06/30 03:23:14;;;;;;;19.53;17.40;;;21.80;99.90;;;;;;5014557;28;20492;-80
2023/06/30 03:25:41;;;;;;;18.17;16.27;;;21.80;99.90;;;;;;5015253;28;20552;-81
2023/06/30 03:28:09;;;;;;;19.30;17.37;;;21.80;99.90;;;;;;5014632;28;20476;-80
2023/06/30 03:30:36;;;;;;;19.57;16.63;;;21.70;99.90;;;;;;5015014;28;20970;-80
2023/06/30 03:33:04;;;;;;;18.67;16.53;;;21.70;99.90;;;;;;5012936;28;20548;-81
2023/06/30 03:35:31;;;;;;;17.87;16.07;;;21.80;99.90;;;;;;5014775;28;20956;-81
2023/06/30 03:38:00;;;;;;;20.37;17.47;;;21.70;99.90;;;;;;5014311;28;20491;-81
2023/06/30 03:40:27;;;;;;;18.07;16.13;;;21.70;99.90;;;;;;5015299;28;20545;-80
2023/06/30 03:42:54;;;;;;;18.97;17.10;;;21.70;99.90;;;;;;5014822;28;20473;-81
2023/06/30 03:45:22;;;;;;;17.90;16.10;;;21.80;99.90;;;;;;5015110;28;20483;-81
2023/06/30 03:47:49;;;;;;;21.10;18.20;;;21.70;99.90;;;;;;5014630;28;20536;-80
2023/06/30 03:50:16;;;;;;;16.70;15.10;;;21.80;99.90;;;;;;5012523;28;20468;-80
2023/06/30 03:52:46;;;;;;;17.53;15.70;;;21.80;99.90;;;;;;5004937;28;20481;-81
2023/06/30 03:55:13;;;;;;;16.70;14.87;;;21.80;99.90;;;;;;5013112;28;20544;-80
2023/06/30 03:57:40;;;;;;;16.93;15.20;;;21.80;99.90;;;;;;5014948;28;20512;-80
2023/06/30 04:00:11;;;;;;;21.07;17.30;;;21.80;99.90;;;;;;5014417;28;20469;-80
2023/06/30 04:02:39;;;;;;;23.20;20.63;;;21.80;99.90;;;;;;5014467;28;20473;-81
2023/06/30 04:05:07;;;;;;;17.10;15.40;;;21.80;99.90;;;;;;5013724;28;20597;-80
2023/06/30 04:07:34;;;;;;;17.40;15.50;;;21.80;99.90;;;;;;5014579;28;20477;-80
2023/06/30 04:10:01;;;;;;;19.57;16.20;;;21.80;99.90;;;;;;5014226;28;20556;-80
2023/06/30 04:12:28;;;;;;;17.57;15.87;;;21.80;99.90;;;;;;5014535;28;20468;-81
2023/06/30 04:14:54;;;;;;;19.10;16.37;;;21.80;99.90;;;;;;5014564;28;20799;-81
2023/06/30 04:17:22;;;;;;;17.40;15.60;;;21.90;99.90;;;;;;5005116;28;20997;-80
2023/06/30 04:19:51;;;;;;;18.27;16.33;;;21.90;99.90;;;;;;5013627;28;20476;-78
2023/06/30 04:22:18;;;;;;;17.83;16.13;;;21.90;99.90;;;;;;5012805;28;20469;-80
2023/06/30 04:24:45;;;;;;;17.50;15.67;;;21.90;99.90;;;;;;5014026;28;20465;-80
2023/06/30 04:27:12;;;;;;;16.33;14.70;;;21.90;99.90;;;;;;5013273;28;21033;-80
2023/06/30 04:29:39;;;;;;;17.33;15.53;;;22.00;99.90;;;;;;5014193;28;20488;-81
2023/06/30 04:32:06;;;;;;;17.47;15.67;;;22.00;99.90;;;;;;5013695;28;20536;-79
2023/06/30 04:34:34;;;;;;;19.77;17.67;;;22.00;99.90;;;;;;5014027;28;20477;-79
2023/06/30 04:37:03;;;;;;;18.33;16.43;;;22.10;99.90;;;;;;5014172;28;20800;-81
2023/06/30 04:39:30;;;;;;;21.23;18.03;;;22.10;99.90;;;;;;5005177;28;20476;-79
2023/06/30 04:41:57;;;;;;;20.40;18.20;;;22.20;99.90;;;;;;5013832;28;20813;-80
2023/06/30 04:44:24;;;;;;;18.90;16.13;;;22.30;99.90;;;;;;5013095;28;20473;-79
2023/06/30 04:46:51;;;;;;;18.33;15.90;;;22.30;99.90;;;;;;5013546;28;20488;-79
2023/06/30 04:49:18;;;;;;;18.17;16.33;;;22.40;99.90;;;;;;5013658;28;20477;-79
2023/06/30 04:51:46;;;;;;;25.20;18.50;;;22.40;99.90;;;;;;5015583;28;20496;-78
2023/06/30 04:54:14;;;;;;;22.13;19.70;;;22.50;99.90;;;;;;5019323;28;20613;-79
2023/06/30 04:56:41;;;;;;;20.40;18.40;;;22.50;99.90;;;;;;5026524;28;20468;-79
2023/06/30 04:59:09;;;;;;;18.63;16.80;;;22.60;99.90;;;;;;5024617;28;20983;-79
2023/06/30 05:01:39;;;;;;;20.30;18.27;;;22.60;99.90;;;;;;5023001;28;20523;-79
2023/06/30 05:04:06;;;;;;;18.20;16.30;;;22.70;99.90;;;;;;5016630;28;20479;-79
2023/06/30 05:06:33;;;;;;;18.30;16.50;;;22.70;99.90;;;;;;5015180;28;20465;-79
2023/06/30 05:09:00;;;;;;;16.00;14.40;;;22.70;99.90;;;;;;5013405;28;20467;-78
2023/06/30 05:11:28;;;;;;;17.93;16.10;;;22.80;99.90;;;;;;5013093;28;20470;-78
2023/06/30 05:13:55;;;;;;;20.60;17.40;;;22.80;99.90;;;;;;5012728;28;20536;-79
2023/06/30 05:16:22;;;;;;;17.87;15.97;;;22.80;99.90;;;;;;5012605;28;20535;-80
2023/06/30 05:18:49;;;;;;;18.00;16.10;;;22.90;99.90;;;;;;5002870;28;20596;-78
2023/06/30 05:21:16;;;;;;;16.17;14.17;;;22.90;99.90;;;;;;5013511;28;23220;-80
2023/06/30 05:23:43;;;;;;;19.57;16.67;;;23.00;99.90;;;;;;5013806;28;20465;-80
2023/06/30 05:26:11;;;;;;;20.23;18.07;;;23.00;99.90;;;;;;5012993;28;20801;-80
2023/06/30 05:28:39;;;;;;;19.80;18.00;;;23.00;99.90;;;;;;5013442;28;20465;-79
2023/06/30 05:31:06;;;;;;;18.57;16.67;;;23.00;99.90;;;;;;5012721;28;20469;-80
2023/06/30 05:33:34;;;;;;;16.73;15.03;;;23.10;99.90;;;;;;5015623;28;20540;-80
2023/06/30 05:36:01;;;;;;;22.90;20.40;;;23.10;99.90;;;;;;5016683;28;20499;-80
2023/06/30 05:41:47;;;;;;;18.57;15.80;;;23.30;99.90;;;;;;5014555;28;20791;-79
2023/06/30 05:44:16;;;;;;;19.77;17.80;;;23.30;99.90;;;;;;5017639;28;20461;-79
2023/06/30 05:46:43;;;;;;;21.60;18.20;;;23.40;99.90;;;;;;5017212;28;20465;-80
2023/06/30 05:49:10;;;;;;;17.50;15.73;;;23.40;99.90;;;;;;5016692;28;20475;-80
2023/06/30 05:51:37;;;;;;;17.43;15.73;;;23.50;99.90;;;;;;5017571;28;20476;-80
2023/06/30 05:54:05;;;;;;;18.90;16.13;;;23.60;99.90;;;;;;5016883;28;20473;-80
2023/06/30 05:56:32;;;;;;;18.43;16.53;;;23.60;99.90;;;;;;5017140;28;20958;-80
2023/06/30 05:58:59;;;;;;;17.47;15.67;;;23.70;99.90;;;;;;5006234;28;20476;-80
2023/06/30 06:01:28;;;;;;;15.73;14.13;;;23.80;99.90;;;;;;5017158;28;21032;-81
2023/06/30 06:03:55;;;;;;;16.33;14.63;;;23.80;99.90;;;;;;5016303;28;20464;-80
2023/06/30 06:06:23;;;;;;;17.40;15.73;;;23.90;99.90;;;;;;5015973;28;20574;-81
2023/06/30 06:08:50;;;;;;;17.97;16.17;;;24.00;99.90;;;;;;5017874;28;20465;-80
2023/06/30 06:11:31;;;;;;;17.97;16.27;;;24.00;99.90;;;;;;5015860;28;20468;-81
2023/06/30 06:13:58;;;;;;;16.40;14.73;;;24.00;99.90;;;;;;5017090;28;20469;-81
2023/06/30 06:16:25;;;;;;;18.93;16.97;;;24.10;99.90;;;;;;5017079;28;20476;-81
2023/06/30 06:18:57;;;;;;;16.93;15.33;;;24.10;99.90;;;;;;5016701;28;20500;-81
2023/06/30 06:21:27;;;;;;;18.57;15.03;;;24.20;99.90;;;;;;4994995;28;20467;-80
2023/06/30 06:23:57;;;;;;;16.70;15.00;;;24.20;99.90;;;;;;4997217;28;20470;-81
2023/06/30 06:26:26;;;;;;;18.20;16.23;;;24.30;99.90;;;;;;4996195;28;20476;-80
2023/06/30 06:28:53;;;;;;;16.90;15.20;;;24.30;99.90;;;;;;4996496;28;20987;-81
2023/06/30 06:31:24;;;;;;;16.20;14.53;;;24.30;99.90;;;;;;4996072;28;20466;-80
2023/06/30 06:33:51;;;;;;;18.27;16.47;;;24.40;99.90;;;;;;4996548;28;20477;-80
2023/06/30 06:36:21;;;;;;;17.10;15.50;;;24.40;99.90;;;;;;4995898;28;20478;-81
2023/06/30 06:38:50;;;;;;;16.63;14.93;;;24.40;99.90;;;;;;4996710;28;20474;-80
2023/06/30 06:41:17;;;;;;;19.00;16.40;;;24.40;99.90;;;;;;4996314;28;20470;-81
2023/06/30 06:43:44;;;;;;;16.80;15.00;;;24.30;99.90;;;;;;4996223;28;20470;-80
2023/06/30 06:46:11;;;;;;;16.70;15.00;;;24.30;99.90;;;;;;4977692;28;20556;-80
2023/06/30 06:48:39;;;;;;;16.80;15.03;;;24.30;99.90;;;;;;4996056;28;20474;-80
2023/06/30 06:51:08;;;;;;;17.23;15.53;;;24.40;99.90;;;;;;4996291;28;20557;-80
2023/06/30 06:53:39;;;;;;;16.70;15.00;;;24.40;99.90;;;;;;4996150;28;20485;-81
2023/06/30 06:56:06;;;;;;;16.70;14.90;;;24.40;99.90;;;;;;4996309;28;20490;-81
2023/06/30 06:58:36;;;;;;;16.97;15.07;;;24.40;99.90;;;;;;4995314;28;20553;-80
2023/06/30 07:01:03;;;;;;;15.90;14.20;;;24.40;99.90;;;;;;4996400;28;20473;-81
2023/06/30 07:03:34;;;;;;;17.37;15.67;;;24.40;99.90;;;;;;4994457;28;20476;-80
2023/06/30 07:06:01;;;;;;;16.20;14.57;;;24.30;99.90;;;;;;4995832;28;20540;-78
2023/06/30 07:08:29;;;;;;;19.30;16.23;;;24.40;99.90;;;;;;4996432;28;20473;-81
2023/06/30 07:10:57;;;;;;;16.67;15.10;;;24.30;99.90;;;;;;4995930;28;20512;-80
2023/06/30 07:13:25;;;;;;;16.20;14.60;;;24.30;99.90;;;;;;4994770;28;20871;-80
2023/06/30 07:15:55;;;;;;;18.33;16.53;;;24.20;99.90;;;;;;4996260;28;20481;-80
2023/06/30 07:18:23;;;;;;;16.03;14.33;;;24.20;99.90;;;;;;4994315;28;20465;-79
2023/06/30 07:21:08;;;;;;;14.67;13.13;;;24.10;99.90;;;;;;4995457;28;20485;-78
2023/06/30 07:23:38;;;;;;;15.03;13.53;;;24.10;99.90;;;;;;4995924;28;20474;-79
2023/06/30 07:26:11;;;;;;;16.03;14.43;;;24.10;99.90;;;;;;4995435;28;20480;-79
2023/06/30 07:28:38;;;;;;;16.50;14.80;;;24.00;99.90;;;;;;4995251;28;20458;-79
2023/06/30 07:31:05;;;;;;;15.40;13.93;;;24.00;99.90;;;;;;4995179;28;20498;-80
2023/06/30 07:33:50;;;;;;;17.33;15.07;;;24.00;99.90;;;;;;4995250;28;20466;-79
2023/06/30 07:38:58;;;;;;;17.50;15.60;;;23.90;99.90;;;;;;4984300;28;20474;-80
2023/06/30 07:41:34;;;;;;;18.13;16.33;;;23.90;99.90;;;;;;4990238;28;20481;-80
2023/06/30 07:44:05;;;;;;;16.40;14.77;;;23.90;99.90;;;;;;5015149;28;20465;-81
2023/06/30 07:46:33;;;;;;;16.90;15.03;;;23.90;99.90;;;;;;5003313;28;20457;-80
2023/06/30 07:49:03;;;;;;;19.43;17.40;;;23.90;99.90;;;;;;5018897;28;20993;-80
2023/06/30 07:51:38;;;;;;;20.10;18.00;;;23.90;99.90;;;;;;5015750;28;20558;-79
2023/06/30 07:54:07;;;;;;;16.90;15.20;;;23.80;99.90;;;;;;5004391;28;20468;-79
2023/06/30 07:56:36;;;;;;;19.40;17.27;;;23.80;99.90;;;;;;5013510;28;20508;-80
2023/06/30 07:59:04;;;;;;;16.83;15.20;;;23.80;99.90;;;;;;5015690;28;20480;-80
2023/06/30 08:01:33;;;;;;;20.60;17.33;;;23.80;99.90;;;;;;5006005;28;20473;-79
2023/06/30 08:04:10;;;;;;;19.23;17.33;;;23.80;99.90;;;;;;5022522;28;20958;-79
2023/06/30 08:10:00;;;;;;;16.47;14.70;;;23.70;99.90;;;;;;5009725;28;20488;-79
2023/06/30 08:12:29;;;;;;;16.37;14.40;;;23.70;99.90;;;;;;5013908;28;20559;-79
2023/06/30 08:14:56;;;;;;;15.07;13.53;;;23.70;99.90;;;;;;5013953;28;20810;-79
2023/06/30 08:17:23;;;;;;;16.57;14.97;;;23.70;99.90;;;;;;5014312;28;20473;-79
2023/06/30 08:19:51;;;;;;;17.50;15.90;;;23.70;99.90;;;;;;5014032;28;20489;-80
2023/06/30 08:22:18;;;;;;;16.67;14.87;;;23.70;99.90;;;;;;5014757;28;20480;-81
2023/06/30 08:24:45;;;;;;;17.87;16.07;;;23.70;99.90;;;;;;5013740;28;20469;-79
2023/06/30 08:27:12;;;;;;;16.10;14.47;;;23.60;99.90;;;;;;5014656;28;21033;-80
2023/06/30 08:29:40;;;;;;;15.93;14.30;;;23.70;99.90;;;;;;5012931;28;20824;-81
2023/06/30 08:32:18;;;;;;;18.67;14.70;;;23.80;99.90;;;;;;5009433;28;20523;-81
2023/06/30 08:34:46;;;;;;;19.57;15.93;;;23.80;99.90;;;;;;5009715;28;20478;-81
2023/06/30 08:37:13;;;;;;;18.83;16.63;;;23.90;99.90;;;;;;5010390;28;20571;-81
2023/06/30 08:39:42;;;;;;;19.53;17.53;;;23.90;99.90;;;;;;5006797;28;20469;-82
2023/06/30 08:42:12;;;;;;;18.23;16.43;;;24.00;99.90;;;;;;5010582;28;20495;-81
2023/06/30 08:44:46;;;;;;;18.13;16.23;;;24.00;99.90;;;;;;5004479;28;20468;-83
2023/06/30 08:47:16;;;;;;;18.00;16.30;;;24.10;99.90;;;;;;4998449;28;20527;-81
2023/06/30 08:49:43;;;;;;;17.57;15.77;;;24.10;99.90;;;;;;5013531;28;20534;-82
2023/06/30 08:52:14;;;;;;;16.67;14.97;;;24.20;99.90;;;;;;5013108;28;20877;-80
2023/06/30 08:54:42;;;;;;;17.40;15.60;;;24.30;99.90;;;;;;5014632;28;20465;-82
2023/06/30 08:57:15;;;;;;;17.77;15.60;;;24.30;99.90;;;;;;5011214;28;20499;-82
2023/06/30 08:59:46;;;;;;;15.30;13.90;;;24.30;99.90;;;;;;5012890;28;20856;-82
2023/06/30 09:02:13;;;;;;;17.70;15.30;;;24.50;99.90;;;;;;5003449;28;20995;-79
2023/06/30 09:04:57;;;;;;;17.70;15.93;;;24.50;99.90;;;;;;4995482;28;20496;-81
2023/06/30 09:07:30;;;;;;;18.50;16.60;;;24.60;99.90;;;;;;4999557;28;20477;-79
2023/06/30 09:10:02;;;;;;;18.00;16.20;;;24.60;99.90;;;;;;5009286;28;20535;-80
2023/06/30 09:13:05;;;;;;;;;;;;;;;;;;;;;
2023/06/30 09:15:36;;;;;;;16.47;14.87;;;24.60;99.90;;;;;;4995886;28;20753;-80
2023/06/30 09:24:55;;;;;;;19.30;17.30;;;24.60;99.90;;;;;;5011867;28;20822;-83
2023/06/30 09:27:27;;;;;;;22.77;20.37;;;24.60;99.90;;;;;;4987247;28;20492;-82
2023/06/30 09:29:56;;;;;;;21.37;19.27;;;24.60;99.90;;;;;;5008518;28;20819;-81
2023/06/30 09:32:32;;;;;;;20.23;18.40;;;24.60;99.90;;;;;;5011704;28;20484;-80
2023/06/30 09:35:10;;;;;;;22.23;20.00;;;24.60;99.90;;;;;;5012135;28;20554;-80
2023/06/30 09:37:42;;;;;;;22.13;19.60;;;24.60;99.90;;;;;;5012522;28;20764;-82
2023/06/30 09:40:19;;;;;;;21.90;19.60;;;24.70;99.90;;;;;;5012144;28;20476;-79
2023/06/30 09:42:47;;;;;;;21.53;19.27;;;24.70;99.90;;;;;;5008767;28;20999;-80
2023/06/30 09:45:14;;;;;;;20.40;18.40;;;24.60;99.90;;;;;;5011105;28;20476;-81
2023/06/30 09:47:48;;;;;;;22.27;20.03;;;24.60;99.90;;;;;;5003572;28;21038;-82
2023/06/30 09:50:15;;;;;;;25.43;22.93;;;24.60;99.90;;;;;;5009118;28;20514;-80
2023/06/30 09:52:43;;;;;;;27.43;24.77;;;24.50;99.90;;;;;;5011789;28;20465;-81
2023/06/30 09:55:12;;;;;;;29.27;26.30;;;24.50;99.90;;;;;;5010626;28;20501;-80
2023/06/30 09:57:43;;;;;;;28.50;25.70;;;24.40;99.90;;;;;;5005676;28;20552;-80
2023/06/30 10:00:13;;;;;;;27.60;24.77;;;24.30;99.90;;;;;;5004359;28;20490;-80
2023/06/30 10:02:40;;;;;;;26.80;23.97;;;24.30;99.90;;;;;;5010154;28;20511;-80
2023/06/30 10:05:10;;;;;;;24.57;22.17;;;24.20;99.90;;;;;;5011091;28;20465;-82
2023/06/30 10:07:39;;;;;;;28.23;23.57;;;24.10;99.90;;;;;;5006342;28;20480;-82
2023/06/30 10:10:10;;;;;;;35.13;25.60;;;24.00;99.90;;;;;;5006711;28;20483;-82
2023/06/30 10:12:40;;;;;;;28.23;25.07;;;23.90;99.90;;;;;;5010860;28;20508;-82
2023/06/30 10:15:12;;;;;;;27.93;24.00;;;23.80;99.90;;;;;;5010915;28;20512;-82
2023/06/30 10:17:43;;;;;;;27.67;24.73;;;23.70;99.90;;;;;;5008752;28;20472;-80
2023/06/30 10:20:12;;;;;;;26.03;23.40;;;23.60;99.90;;;;;;5014325;28;20469;-80
2023/06/30 10:22:40;;;;;;;28.60;25.57;;;23.60;99.90;;;;;;5015367;28;20476;-81
2023/06/30 10:25:09;;;;;;;26.57;23.23;;;23.50;99.90;;;;;;5015043;28;20476;-80
2023/06/30 10:27:37;;;;;;;36.30;29.37;;;23.50;99.90;;;;;;5012205;28;20477;-80
2023/06/30 10:30:07;;;;;;;29.67;26.47;;;23.50;99.90;;;;;;5013734;28;20469;-80
2023/06/30 10:32:34;;;;;;;31.83;27.93;;;23.50;99.90;;;;;;5015624;28;20485;-80
2023/06/30 10:35:04;;;;;;;36.00;32.17;;;23.50;99.90;;;;;;5015957;28;20469;-80
2023/06/30 10:37:34;;;;;;;28.90;25.83;;;23.50;99.90;;;;;;5012741;28;20477;-81
2023/06/30 10:40:01;;;;;;;29.43;26.00;;;23.50;99.90;;;;;;5015201;28;20939;-82
2023/06/30 10:42:28;;;;;;;27.70;24.07;;;23.40;99.90;;;;;;5015958;28;21192;-81
2023/06/30 10:45:00;;;;;;;27.47;22.97;;;23.40;99.90;;;;;;5013610;28;20453;-82
2023/06/30 10:47:29;;;;;;;29.20;24.90;;;23.30;99.90;;;;;;5006515;28;20473;-80
2023/06/30 10:49:56;;;;;;;23.87;21.37;;;23.30;99.90;;;;;;5016466;28;20450;-81
2023/06/30 10:52:30;;;;;;;25.30;22.17;;;23.20;99.90;;;;;;5016738;28;20472;-80
2023/06/30 10:55:06;;;;;;;28.10;24.07;;;23.10;99.90;;;;;;5013031;28;20452;-80
2023/06/30 10:57:38;;;;;;;25.13;21.77;;;23.00;99.90;;;;;;5006581;28;20477;-80
2023/06/30 11:00:07;;;;;;;25.80;23.20;;;22.90;99.90;;;;;;5007740;28;20458;-81
2023/06/30 11:02:35;;;;;;;28.43;25.43;;;22.80;99.90;;;;;;5014965;28;20478;-81
2023/06/30 11:05:23;;;;;;;25.03;21.53;;;22.70;99.90;;;;;;5014753;28;20469;-81
2023/06/30 11:07:52;;;;;;;28.67;24.40;;;22.70;99.90;;;;;;5012390;28;20966;-82
2023/06/30 11:10:36;;;;;;;30.63;26.07;;;22.60;99.90;;;;;;5010059;28;20572;-79
2023/06/30 11:13:05;;;;;;;30.40;25.13;;;22.50;99.90;;;;;;5009245;28;20472;-80
2023/06/30 11:15:37;;;;;;;31.13;27.63;;;22.50;99.90;;;;;;5006771;28;20877;-79
2023/06/30 11:18:07;;;;;;;28.30;24.93;;;22.40;99.90;;;;;;5013457;28;20508;-78
2023/06/30 11:20:34;;;;;;;26.93;23.43;;;22.40;99.90;;;;;;5015408;28;20811;-78
2023/06/30 11:23:03;;;;;;;25.53;22.37;;;22.30;99.90;;;;;;5015256;28;20473;-78
2023/06/30 11:25:33;;;;;;;26.40;22.00;;;22.30;99.90;;;;;;5008959;28;20489;-80
2023/06/30 11:28:03;;;;;;;26.20;22.20;;;22.30;99.90;;;;;;5006733;28;20477;-79
2023/06/30 11:30:38;;;;;;;25.80;23.00;;;22.30;99.90;;;;;;5014457;28;20504;-79
2023/06/30 11:33:07;;;;;;;27.23;22.60;;;22.30;99.90;;;;;;5013436;28;20476;-78
2023/06/30 11:35:35;;;;;;;26.37;23.63;;;22.20;99.90;;;;;;5007488;28;20490;-79
2023/06/30 11:38:03;;;;;;;28.90;24.57;;;22.20;99.90;;;;;;5014151;28;20516;-79
2023/06/30 11:40:37;;;;;;;25.23;22.33;;;22.20;99.90;;;;;;5015879;28;20539;-78
2023/06/30 11:43:05;;;;;;;30.53;25.90;;;22.20;99.90;;;;;;5014783;28;20472;-78
2023/06/30 11:45:39;;;;;;;28.83;25.17;;;22.20;99.90;;;;;;5011887;28;20532;-79
2023/06/30 11:48:07;;;;;;;23.43;21.03;;;22.20;99.90;;;;;;4995058;28;20473;-79
2023/06/30 11:50:34;;;;;;;26.90;24.10;;;22.30;99.90;;;;;;4995536;28;20469;-78
2023/06/30 11:53:02;;;;;;;26.57;23.50;;;22.30;99.90;;;;;;5011571;28;20839;-79
2023/06/30 11:55:29;;;;;;;28.63;25.53;;;22.30;99.90;;;;;;5013808;28;20473;-79
2023/06/30 11:57:58;;;;;;;31.40;27.70;;;22.40;99.90;;;;;;5012792;28;20477;-78
2023/06/30 12:00:26;;;;;;;29.53;26.27;;;22.40;99.90;;;;;;5013655;28;20463;-77
2023/06/30 12:02:53;;;;;;;29.97;26.20;;;22.50;99.90;;;;;;5006421;28;20469;-80
2023/06/30 12:05:25;;;;;;;18.80;16.90;;;22.50;99.90;;;;;;5012581;28;20488;-80
2023/06/30 12:07:55;;;;;;;14.57;12.67;;;22.50;99.90;;;;;;5019952;28;20471;-80
2023/06/30 12:10:37;;;;;;;13.83;11.30;;;22.50;99.90;;;;;;5005063;28;20479;-80
2023/06/30 12:13:08;;;;;;;11.20;9.63;;;22.40;99.90;;;;;;5012979;28;20495;-78
2023/06/30 12:15:37;;;;;;;12.13;10.93;;;22.40;99.90;;;;;;5008966;28;20473;-79
2023/06/30 12:18:05;;;;;;;9.83;8.80;;;22.30;99.90;;;;;;5011804;28;20464;-79
2023/06/30 12:20:36;;;;;;;9.97;8.97;;;22.30;99.90;;;;;;5010404;28;20815;-77
2023/06/30 12:23:03;;;;;;;8.97;8.07;;;22.20;99.90;;;;;;5013714;28;20946;-77
2023/06/30 12:25:31;;;;;;;10.43;9.37;;;22.20;99.90;;;;;;5011063;28;20484;-80
2023/06/30 12:27:58;;;;;;;9.80;7.83;;;22.10;99.90;;;;;;5014134;28;20477;-78
2023/06/30 12:30:31;;;;;;;7.83;7.20;;;22.20;99.90;;;;;;5015995;28;20540;-79
2023/06/30 12:33:00;;;;;;;10.00;8.83;;;22.20;99.90;;;;;;5012412;28;20954;-79
2023/06/30 12:35:31;;;;;;;10.17;8.33;;;22.20;99.90;;;;;;5010744;28;20963;-79
2023/06/30 12:38:03;;;;;;;8.43;7.63;;;22.20;99.90;;;;;;5011362;28;20531;-77
2023/06/30 12:40:30;;;;;;;8.00;7.30;;;22.20;99.90;;;;;;5008628;28;20536;-79
2023/06/30 12:42:58;;;;;;;9.33;8.10;;;22.20;99.90;;;;;;5012102;28;20490;-79
2023/06/30 12:45:25;;;;;;;9.10;8.20;;;22.10;99.90;;;;;;5012588;28;20537;-77
2023/06/30 12:47:54;;;;;;;7.70;6.90;;;22.20;99.90;;;;;;4994768;28;20474;-78
2023/06/30 12:50:22;;;;;;;7.40;6.80;;;22.10;99.90;;;;;;4996745;28;20466;-79
2023/06/30 12:52:51;;;;;;;7.20;6.50;;;22.10;99.90;;;;;;5003118;28;20476;-77